sensor_id;sensor_type;location;lat;lon;timestamp;P1;durP1;ratioP1;P2;durP2;ratioP2
61104;SDS011;46987;32.638;-115.438;2023-11-21T00:01:02;10.32;;;2.47;;
61104;SDS011;46987;32.638;-115.438;2023-11-21T00:03:30;10.93;;;1.92;;
61104;SDS011;46987;32.638;-115.438;2023-11-21T00:05:57;10.48;;;1.30;;
61104;SDS011;46987;32.638;-115.438;2023-11-21T00:08:24;8.13;;;1.35;;
61104;SDS011;46987;32.638;-115.438;2023-11-21T00:10:50;10.57;;;1.67;;
61104;SDS011;46987;32.638;-115.438;2023-11-21T00:13:18;10.40;;;1.58;;
61104;SDS011;46987;32.638;-115.438;2023-11-21T00:15:46;8.43;;;1.83;;
61104;SDS011;46987;32.638;-115.438;2023-11-21T00:18:12;12.40;;;3.35;;
61104;SDS011;46987;32.638;-115.438;2023-11-21T00:20:40;9.55;;;2.10;;
61104;SDS011;46987;32.638;-115.438;2023-11-21T00:23:06;12.23;;;2.92;;
61104;SDS011;46987;32.638;-115.438;2023-11-21T00:25:33;7.03;;;1.67;;
61104;SDS011;46987;32.638;-115.438;2023-11-21T00:28:00;9.15;;;1.95;;
61104;SDS011;46987;32.638;-115.438;2023-11-21T00:30:29;14.65;;;3.10;;
61104;SDS011;46987;32.638;-115.438;2023-11-21T00:32:57;15.43;;;2.50;;
61104;SDS011;46987;32.638;-115.438;2023-11-21T00:35:25;12.07;;;3.33;;
61104;SDS011;46987;32.638;-115.438;2023-11-21T00:37:52;17.42;;;2.42;;
61104;SDS011;46987;32.638;-115.438;2023-11-21T00:40:19;12.43;;;2.83;;
61104;SDS011;46987;32.638;-115.438;2023-11-21T00:42:47;13.60;;;2.25;;
61104;SDS011;46987;32.638;-115.438;2023-11-21T00:45:14;10.75;;;2.22;;
61104;SDS011;46987;32.638;-115.438;2023-11-21T00:47:42;6.88;;;2.13;;
61104;SDS011;46987;32.638;-115.438;2023-11-21T00:50:09;15.32;;;2.75;;
61104;SDS011;46987;32.638;-115.438;2023-11-21T00:52:36;10.32;;;2.50;;
61104;SDS011;46987;32.638;-115.438;2023-11-21T00:55:03;14.38;;;3.35;;
61104;SDS011;46987;32.638;-115.438;2023-11-21T00:57:30;12.10;;;3.08;;
61104;SDS011;46987;32.638;-115.438;2023-11-21T00:59:57;14.93;;;2.50;;
61104;SDS011;46987;32.638;-115.438;2023-11-21T01:02:24;15.77;;;3.10;;
61104;SDS011;46987;32.638;-115.438;2023-11-21T01:04:53;18.55;;;3.05;;
61104;SDS011;46987;32.638;-115.438;2023-11-21T01:07:19;21.65;;;4.15;;
61104;SDS011;46987;32.638;-115.438;2023-11-21T01:09:46;16.98;;;4.50;;
61104;SDS011;46987;32.638;-115.438;2023-11-21T01:12:13;14.20;;;3.17;;
61104;SDS011;46987;32.638;-115.438;2023-11-21T01:14:40;10.98;;;2.10;;
61104;SDS011;46987;32.638;-115.438;2023-11-21T01:17:07;10.65;;;1.77;;
61104;SDS011;46987;32.638;-115.438;2023-11-21T01:19:33;13.90;;;2.63;;
61104;SDS011;46987;32.638;-115.438;2023-11-21T01:22:02;7.30;;;2.03;;
61104;SDS011;46987;32.638;-115.438;2023-11-21T01:24:30;12.10;;;1.60;;
61104;SDS011;46987;32.638;-115.438;2023-11-21T01:26:56;9.02;;;1.85;;
61104;SDS011;46987;32.638;-115.438;2023-11-21T01:29:23;12.57;;;2.75;;
61104;SDS011;46987;32.638;-115.438;2023-11-21T01:31:50;10.63;;;1.48;;
61104;SDS011;46987;32.638;-115.438;2023-11-21T01:34:18;6.15;;;1.75;;
61104;SDS011;46987;32.638;-115.438;2023-11-21T01:36:45;16.05;;;2.80;;
61104;SDS011;46987;32.638;-115.438;2023-11-21T01:39:14;9.27;;;2.10;;
61104;SDS011;46987;32.638;-115.438;2023-11-21T01:41:44;20.67;;;2.95;;
61104;SDS011;46987;32.638;-115.438;2023-11-21T01:44:10;12.02;;;2.30;;
61104;SDS011;46987;32.638;-115.438;2023-11-21T01:46:38;15.55;;;2.70;;
61104;SDS011;46987;32.638;-115.438;2023-11-21T01:49:05;15.25;;;2.00;;
61104;SDS011;46987;32.638;-115.438;2023-11-21T01:51:32;10.95;;;2.08;;
61104;SDS011;46987;32.638;-115.438;2023-11-21T01:54:02;8.77;;;2.40;;
61104;SDS011;46987;32.638;-115.438;2023-11-21T01:56:33;9.38;;;2.78;;
61104;SDS011;46987;32.638;-115.438;2023-11-21T01:59:00;7.90;;;2.33;;
61104;SDS011;46987;32.638;-115.438;2023-11-21T02:01:28;11.43;;;2.55;;
61104;SDS011;46987;32.638;-115.438;2023-11-21T02:03:54;18.05;;;3.50;;
61104;SDS011;46987;32.638;-115.438;2023-11-21T02:06:21;12.63;;;2.92;;
61104;SDS011;46987;32.638;-115.438;2023-11-21T02:08:48;15.07;;;3.17;;
61104;SDS011;46987;32.638;-115.438;2023-11-21T02:11:16;23.27;;;5.10;;
61104;SDS011;46987;32.638;-115.438;2023-11-21T02:13:44;13.65;;;4.00;;
61104;SDS011;46987;32.638;-115.438;2023-11-21T02:16:13;13.63;;;4.00;;
61104;SDS011;46987;32.638;-115.438;2023-11-21T02:18:41;12.98;;;3.88;;
61104;SDS011;46987;32.638;-115.438;2023-11-21T02:21:08;15.23;;;4.18;;
61104;SDS011;46987;32.638;-115.438;2023-11-21T02:23:37;11.07;;;3.88;;
61104;SDS011;46987;32.638;-115.438;2023-11-21T02:26:08;11.75;;;3.90;;
61104;SDS011;46987;32.638;-115.438;2023-11-21T02:28:36;14.30;;;4.25;;
61104;SDS011;46987;32.638;-115.438;2023-11-21T02:31:03;17.50;;;4.85;;
61104;SDS011;46987;32.638;-115.438;2023-11-21T02:33:30;12.90;;;4.28;;
61104;SDS011;46987;32.638;-115.438;2023-11-21T02:36:00;13.88;;;5.43;;
61104;SDS011;46987;32.638;-115.438;2023-11-21T02:38:27;16.40;;;5.63;;
61104;SDS011;46987;32.638;-115.438;2023-11-21T02:40:56;23.98;;;5.82;;
61104;SDS011;46987;32.638;-115.438;2023-11-21T02:43:24;18.63;;;5.78;;
61104;SDS011;46987;32.638;-115.438;2023-11-21T02:45:51;18.40;;;5.80;;
61104;SDS011;46987;32.638;-115.438;2023-11-21T02:48:18;21.38;;;6.05;;
61104;SDS011;46987;32.638;-115.438;2023-11-21T02:50:44;22.58;;;5.68;;
61104;SDS011;46987;32.638;-115.438;2023-11-21T02:53:11;22.45;;;5.80;;
61104;SDS011;46987;32.638;-115.438;2023-11-21T02:55:38;20.60;;;5.55;;
61104;SDS011;46987;32.638;-115.438;2023-11-21T02:58:07;16.77;;;6.10;;
61104;SDS011;46987;32.638;-115.438;2023-11-21T03:00:34;19.13;;;6.55;;
61104;SDS011;46987;32.638;-115.438;2023-11-21T03:03:01;16.65;;;5.60;;
61104;SDS011;46987;32.638;-115.438;2023-11-21T03:05:28;23.90;;;6.00;;
61104;SDS011;46987;32.638;-115.438;2023-11-21T03:07:55;19.73;;;5.75;;
61104;SDS011;46987;32.638;-115.438;2023-11-21T03:10:22;21.35;;;8.80;;
61104;SDS011;46987;32.638;-115.438;2023-11-21T03:12:49;18.05;;;8.52;;
61104;SDS011;46987;32.638;-115.438;2023-11-21T03:15:17;19.65;;;7.10;;
61104;SDS011;46987;32.638;-115.438;2023-11-21T03:17:44;24.20;;;8.00;;
61104;SDS011;46987;32.638;-115.438;2023-11-21T03:20:11;28.52;;;8.43;;
61104;SDS011;46987;32.638;-115.438;2023-11-21T03:22:39;24.85;;;8.20;;
61104;SDS011;46987;32.638;-115.438;2023-11-21T03:25:07;23.35;;;8.38;;
61104;SDS011;46987;32.638;-115.438;2023-11-21T03:27:36;20.20;;;8.05;;
61104;SDS011;46987;32.638;-115.438;2023-11-21T03:30:05;16.38;;;7.38;;
61104;SDS011;46987;32.638;-115.438;2023-11-21T03:32:35;22.45;;;7.80;;
61104;SDS011;46987;32.638;-115.438;2023-11-21T03:35:02;23.85;;;7.32;;
61104;SDS011;46987;32.638;-115.438;2023-11-21T03:37:29;19.60;;;8.23;;
61104;SDS011;46987;32.638;-115.438;2023-11-21T03:39:56;22.83;;;9.00;;
61104;SDS011;46987;32.638;-115.438;2023-11-21T03:42:23;24.95;;;9.25;;
61104;SDS011;46987;32.638;-115.438;2023-11-21T03:44:52;27.33;;;9.80;;
61104;SDS011;46987;32.638;-115.438;2023-11-21T03:47:20;23.05;;;8.23;;
61104;SDS011;46987;32.638;-115.438;2023-11-21T03:49:49;23.65;;;9.02;;
61104;SDS011;46987;32.638;-115.438;2023-11-21T03:52:16;25.42;;;8.35;;
61104;SDS011;46987;32.638;-115.438;2023-11-21T03:54:42;26.88;;;8.25;;
61104;SDS011;46987;32.638;-115.438;2023-11-21T03:57:09;26.95;;;8.88;;
61104;SDS011;46987;32.638;-115.438;2023-11-21T03:59:36;23.23;;;10.38;;
61104;SDS011;46987;32.638;-115.438;2023-11-21T04:02:06;26.10;;;9.13;;
61104;SDS011;46987;32.638;-115.438;2023-11-21T04:04:33;30.73;;;11.07;;
61104;SDS011;46987;32.638;-115.438;2023-11-21T04:07:02;28.08;;;10.73;;
61104;SDS011;46987;32.638;-115.438;2023-11-21T04:09:29;34.33;;;10.05;;
61104;SDS011;46987;32.638;-115.438;2023-11-21T04:11:56;24.25;;;10.63;;
61104;SDS011;46987;32.638;-115.438;2023-11-21T04:14:22;31.80;;;13.05;;
61104;SDS011;46987;32.638;-115.438;2023-11-21T04:16:49;36.08;;;11.85;;
61104;SDS011;46987;32.638;-115.438;2023-11-21T04:19:16;29.90;;;11.55;;
61104;SDS011;46987;32.638;-115.438;2023-11-21T04:21:43;27.52;;;10.80;;
61104;SDS011;46987;32.638;-115.438;2023-11-21T04:24:11;26.23;;;10.48;;
61104;SDS011;46987;32.638;-115.438;2023-11-21T04:26:38;37.22;;;12.85;;
61104;SDS011;46987;32.638;-115.438;2023-11-21T04:29:05;32.33;;;13.32;;
61104;SDS011;46987;32.638;-115.438;2023-11-21T04:31:32;34.78;;;12.52;;
61104;SDS011;46987;32.638;-115.438;2023-11-21T04:33:58;34.42;;;12.52;;
61104;SDS011;46987;32.638;-115.438;2023-11-21T04:36:25;35.13;;;13.98;;
61104;SDS011;46987;32.638;-115.438;2023-11-21T04:38:52;32.10;;;12.10;;
61104;SDS011;46987;32.638;-115.438;2023-11-21T04:41:20;29.38;;;11.82;;
61104;SDS011;46987;32.638;-115.438;2023-11-21T04:43:47;38.60;;;12.13;;
61104;SDS011;46987;32.638;-115.438;2023-11-21T04:46:14;29.60;;;9.98;;
61104;SDS011;46987;32.638;-115.438;2023-11-21T04:48:40;33.20;;;12.02;;
61104;SDS011;46987;32.638;-115.438;2023-11-21T04:51:07;26.88;;;10.18;;
61104;SDS011;46987;32.638;-115.438;2023-11-21T04:53:34;31.70;;;9.98;;
61104;SDS011;46987;32.638;-115.438;2023-11-21T04:56:01;30.80;;;9.60;;
61104;SDS011;46987;32.638;-115.438;2023-11-21T04:58:29;29.45;;;9.85;;
61104;SDS011;46987;32.638;-115.438;2023-11-21T05:00:57;27.38;;;9.60;;
61104;SDS011;46987;32.638;-115.438;2023-11-21T05:03:23;29.13;;;11.68;;
61104;SDS011;46987;32.638;-115.438;2023-11-21T05:05:50;30.23;;;11.25;;
61104;SDS011;46987;32.638;-115.438;2023-11-21T05:08:17;32.78;;;9.15;;
61104;SDS011;46987;32.638;-115.438;2023-11-21T05:10:48;27.83;;;9.75;;
61104;SDS011;46987;32.638;-115.438;2023-11-21T05:13:18;33.38;;;10.45;;
61104;SDS011;46987;32.638;-115.438;2023-11-21T05:15:46;28.25;;;9.68;;
61104;SDS011;46987;32.638;-115.438;2023-11-21T05:18:13;23.50;;;8.85;;
61104;SDS011;46987;32.638;-115.438;2023-11-21T05:20:40;34.92;;;9.18;;
61104;SDS011;46987;32.638;-115.438;2023-11-21T05:23:07;32.58;;;10.88;;
61104;SDS011;46987;32.638;-115.438;2023-11-21T05:25:34;39.25;;;10.27;;
61104;SDS011;46987;32.638;-115.438;2023-11-21T05:28:01;24.95;;;10.02;;
61104;SDS011;46987;32.638;-115.438;2023-11-21T05:30:29;27.38;;;8.10;;
61104;SDS011;46987;32.638;-115.438;2023-11-21T05:32:57;21.30;;;7.07;;
61104;SDS011;46987;32.638;-115.438;2023-11-21T05:35:24;21.40;;;7.03;;
61104;SDS011;46987;32.638;-115.438;2023-11-21T05:37:51;21.48;;;7.10;;
61104;SDS011;46987;32.638;-115.438;2023-11-21T05:40:17;25.42;;;6.90;;
61104;SDS011;46987;32.638;-115.438;2023-11-21T05:42:44;24.55;;;6.20;;
61104;SDS011;46987;32.638;-115.438;2023-11-21T05:45:11;23.25;;;6.63;;
61104;SDS011;46987;32.638;-115.438;2023-11-21T05:47:39;17.73;;;5.50;;
61104;SDS011;46987;32.638;-115.438;2023-11-21T05:50:08;18.42;;;6.68;;
61104;SDS011;46987;32.638;-115.438;2023-11-21T05:52:36;19.92;;;5.88;;
61104;SDS011;46987;32.638;-115.438;2023-11-21T05:55:03;17.05;;;5.10;;
61104;SDS011;46987;32.638;-115.438;2023-11-21T05:57:39;19.88;;;6.88;;
61104;SDS011;46987;32.638;-115.438;2023-11-21T06:00:07;18.27;;;7.05;;
61104;SDS011;46987;32.638;-115.438;2023-11-21T06:02:38;21.13;;;6.45;;
61104;SDS011;46987;32.638;-115.438;2023-11-21T06:05:05;16.05;;;5.78;;
61104;SDS011;46987;32.638;-115.438;2023-11-21T06:07:33;20.10;;;5.65;;
61104;SDS011;46987;32.638;-115.438;2023-11-21T06:10:01;16.70;;;5.47;;
61104;SDS011;46987;32.638;-115.438;2023-11-21T06:12:29;17.25;;;6.35;;
61104;SDS011;46987;32.638;-115.438;2023-11-21T06:14:55;19.25;;;6.40;;
61104;SDS011;46987;32.638;-115.438;2023-11-21T06:17:22;18.15;;;6.05;;
61104;SDS011;46987;32.638;-115.438;2023-11-21T06:19:51;19.88;;;7.55;;
61104;SDS011;46987;32.638;-115.438;2023-11-21T06:22:19;18.35;;;6.65;;
61104;SDS011;46987;32.638;-115.438;2023-11-21T06:24:47;22.52;;;6.47;;
61104;SDS011;46987;32.638;-115.438;2023-11-21T06:27:14;18.30;;;5.35;;
61104;SDS011;46987;32.638;-115.438;2023-11-21T06:29:42;12.80;;;5.43;;
61104;SDS011;46987;32.638;-115.438;2023-11-21T06:32:09;16.15;;;6.13;;
61104;SDS011;46987;32.638;-115.438;2023-11-21T06:34:36;18.65;;;6.55;;
61104;SDS011;46987;32.638;-115.438;2023-11-21T06:37:03;22.00;;;8.40;;
61104;SDS011;46987;32.638;-115.438;2023-11-21T06:39:30;20.02;;;7.95;;
61104;SDS011;46987;32.638;-115.438;2023-11-21T06:41:58;22.45;;;7.25;;
61104;SDS011;46987;32.638;-115.438;2023-11-21T06:44:26;22.45;;;7.50;;
61104;SDS011;46987;32.638;-115.438;2023-11-21T06:46:53;20.50;;;6.30;;
61104;SDS011;46987;32.638;-115.438;2023-11-21T06:49:19;20.92;;;5.70;;
61104;SDS011;46987;32.638;-115.438;2023-11-21T06:51:46;16.00;;;5.65;;
61104;SDS011;46987;32.638;-115.438;2023-11-21T06:54:13;17.13;;;5.75;;
61104;SDS011;46987;32.638;-115.438;2023-11-21T06:56:40;20.92;;;6.47;;
61104;SDS011;46987;32.638;-115.438;2023-11-21T06:59:09;24.90;;;7.90;;
61104;SDS011;46987;32.638;-115.438;2023-11-21T07:01:37;19.77;;;7.57;;
61104;SDS011;46987;32.638;-115.438;2023-11-21T07:04:05;21.08;;;9.02;;
61104;SDS011;46987;32.638;-115.438;2023-11-21T07:06:33;19.80;;;8.45;;
61104;SDS011;46987;32.638;-115.438;2023-11-21T07:08:59;18.88;;;9.90;;
61104;SDS011;46987;32.638;-115.438;2023-11-21T07:11:27;24.60;;;9.50;;
61104;SDS011;46987;32.638;-115.438;2023-11-21T07:13:54;16.38;;;8.73;;
61104;SDS011;46987;32.638;-115.438;2023-11-21T07:16:22;22.42;;;9.68;;
61104;SDS011;46987;32.638;-115.438;2023-11-21T07:18:49;20.77;;;8.68;;
61104;SDS011;46987;32.638;-115.438;2023-11-21T07:21:16;20.90;;;9.10;;
61104;SDS011;46987;32.638;-115.438;2023-11-21T07:23:43;21.80;;;9.70;;
61104;SDS011;46987;32.638;-115.438;2023-11-21T07:26:10;19.10;;;8.75;;
61104;SDS011;46987;32.638;-115.438;2023-11-21T07:28:36;25.58;;;10.20;;
61104;SDS011;46987;32.638;-115.438;2023-11-21T07:31:04;18.80;;;9.55;;
61104;SDS011;46987;32.638;-115.438;2023-11-21T07:33:32;25.38;;;9.65;;
61104;SDS011;46987;32.638;-115.438;2023-11-21T07:35:59;20.00;;;9.60;;
61104;SDS011;46987;32.638;-115.438;2023-11-21T07:38:26;25.88;;;9.77;;
61104;SDS011;46987;32.638;-115.438;2023-11-21T07:40:54;20.38;;;9.38;;
61104;SDS011;46987;32.638;-115.438;2023-11-21T07:43:21;24.17;;;9.77;;
61104;SDS011;46987;32.638;-115.438;2023-11-21T07:45:48;21.30;;;9.80;;
61104;SDS011;46987;32.638;-115.438;2023-11-21T07:48:15;20.63;;;9.48;;
61104;SDS011;46987;32.638;-115.438;2023-11-21T07:50:43;19.48;;;9.07;;
61104;SDS011;46987;32.638;-115.438;2023-11-21T07:53:10;22.10;;;9.00;;
61104;SDS011;46987;32.638;-115.438;2023-11-21T07:55:37;18.88;;;9.18;;
61104;SDS011;46987;32.638;-115.438;2023-11-21T07:58:04;20.23;;;8.30;;
61104;SDS011;46987;32.638;-115.438;2023-11-21T08:00:31;25.35;;;8.73;;
61104;SDS011;46987;32.638;-115.438;2023-11-21T08:02:57;23.17;;;9.30;;
61104;SDS011;46987;32.638;-115.438;2023-11-21T08:05:24;20.17;;;8.88;;
61104;SDS011;46987;32.638;-115.438;2023-11-21T08:07:52;25.70;;;9.50;;
61104;SDS011;46987;32.638;-115.438;2023-11-21T08:10:19;17.67;;;8.40;;
61104;SDS011;46987;32.638;-115.438;2023-11-21T08:12:47;20.67;;;8.13;;
61104;SDS011;46987;32.638;-115.438;2023-11-21T08:15:14;19.10;;;8.38;;
61104;SDS011;46987;32.638;-115.438;2023-11-21T08:17:41;19.58;;;7.80;;
61104;SDS011;46987;32.638;-115.438;2023-11-21T08:20:09;22.02;;;8.70;;
61104;SDS011;46987;32.638;-115.438;2023-11-21T08:22:36;16.58;;;7.90;;
61104;SDS011;46987;32.638;-115.438;2023-11-21T08:25:05;22.25;;;7.93;;
61104;SDS011;46987;32.638;-115.438;2023-11-21T08:27:32;16.65;;;6.97;;
61104;SDS011;46987;32.638;-115.438;2023-11-21T08:29:59;21.17;;;8.25;;
61104;SDS011;46987;32.638;-115.438;2023-11-21T08:32:26;20.85;;;7.82;;
61104;SDS011;46987;32.638;-115.438;2023-11-21T08:34:53;19.70;;;8.50;;
61104;SDS011;46987;32.638;-115.438;2023-11-21T08:37:19;20.50;;;8.10;;
61104;SDS011;46987;32.638;-115.438;2023-11-21T08:39:47;20.70;;;8.32;;
61104;SDS011;46987;32.638;-115.438;2023-11-21T08:42:16;22.15;;;9.50;;
61104;SDS011;46987;32.638;-115.438;2023-11-21T08:44:42;25.73;;;9.23;;
61104;SDS011;46987;32.638;-115.438;2023-11-21T08:47:09;17.42;;;8.95;;
61104;SDS011;46987;32.638;-115.438;2023-11-21T08:49:36;22.27;;;9.23;;
61104;SDS011;46987;32.638;-115.438;2023-11-21T08:52:03;17.35;;;7.50;;
61104;SDS011;46987;32.638;-115.438;2023-11-21T08:54:31;22.40;;;8.35;;
61104;SDS011;46987;32.638;-115.438;2023-11-21T08:56:57;25.83;;;8.43;;
61104;SDS011;46987;32.638;-115.438;2023-11-21T08:59:26;26.05;;;8.48;;
61104;SDS011;46987;32.638;-115.438;2023-11-21T09:01:53;16.92;;;8.10;;
61104;SDS011;46987;32.638;-115.438;2023-11-21T09:04:19;16.05;;;8.07;;
61104;SDS011;46987;32.638;-115.438;2023-11-21T09:06:46;23.00;;;8.70;;
61104;SDS011;46987;32.638;-115.438;2023-11-21T09:09:13;24.65;;;9.10;;
61104;SDS011;46987;32.638;-115.438;2023-11-21T09:11:40;27.67;;;9.13;;
61104;SDS011;46987;32.638;-115.438;2023-11-21T09:14:07;24.33;;;10.07;;
61104;SDS011;46987;32.638;-115.438;2023-11-21T09:16:36;26.15;;;9.57;;
61104;SDS011;46987;32.638;-115.438;2023-11-21T09:19:03;26.13;;;10.20;;
61104;SDS011;46987;32.638;-115.438;2023-11-21T09:21:31;17.92;;;8.43;;
61104;SDS011;46987;32.638;-115.438;2023-11-21T09:23:58;23.02;;;8.73;;
61104;SDS011;46987;32.638;-115.438;2023-11-21T09:26:24;17.45;;;9.07;;
61104;SDS011;46987;32.638;-115.438;2023-11-21T09:28:51;21.48;;;9.35;;
61104;SDS011;46987;32.638;-115.438;2023-11-21T09:31:18;24.80;;;10.05;;
61104;SDS011;46987;32.638;-115.438;2023-11-21T09:33:50;18.90;;;10.65;;
61104;SDS011;46987;32.638;-115.438;2023-11-21T09:36:17;19.52;;;10.25;;
61104;SDS011;46987;32.638;-115.438;2023-11-21T09:38:44;26.52;;;11.07;;
61104;SDS011;46987;32.638;-115.438;2023-11-21T09:41:14;25.35;;;10.77;;
61104;SDS011;46987;32.638;-115.438;2023-11-21T09:43:44;24.03;;;11.13;;
61104;SDS011;46987;32.638;-115.438;2023-11-21T09:46:12;20.30;;;10.30;;
61104;SDS011;46987;32.638;-115.438;2023-11-21T09:48:42;22.50;;;11.20;;
61104;SDS011;46987;32.638;-115.438;2023-11-21T09:51:12;21.00;;;9.48;;
61104;SDS011;46987;32.638;-115.438;2023-11-21T09:53:39;21.90;;;9.23;;
61104;SDS011;46987;32.638;-115.438;2023-11-21T09:56:10;21.95;;;7.57;;
61104;SDS011;46987;32.638;-115.438;2023-11-21T09:58:36;13.63;;;6.50;;
61104;SDS011;46987;32.638;-115.438;2023-11-21T10:01:04;16.75;;;7.00;;
61104;SDS011;46987;32.638;-115.438;2023-11-21T10:03:35;32.42;;;6.70;;
61104;SDS011;46987;32.638;-115.438;2023-11-21T10:06:03;13.40;;;5.90;;
61104;SDS011;46987;32.638;-115.438;2023-11-21T10:08:33;16.88;;;5.28;;
61104;SDS011;46987;32.638;-115.438;2023-11-21T10:11:00;13.82;;;4.55;;
61104;SDS011;46987;32.638;-115.438;2023-11-21T10:13:29;12.68;;;3.80;;
61104;SDS011;46987;32.638;-115.438;2023-11-21T10:15:58;11.93;;;3.95;;
61104;SDS011;46987;32.638;-115.438;2023-11-21T10:18:44;13.23;;;4.30;;
61104;SDS011;46987;32.638;-115.438;2023-11-21T10:21:12;10.68;;;3.30;;
61104;SDS011;46987;32.638;-115.438;2023-11-21T10:23:40;8.55;;;2.67;;
61104;SDS011;46987;32.638;-115.438;2023-11-21T10:26:07;12.35;;;3.30;;
61104;SDS011;46987;32.638;-115.438;2023-11-21T10:28:35;9.43;;;3.28;;
61104;SDS011;46987;32.638;-115.438;2023-11-21T10:33:51;9.35;;;3.72;;
61104;SDS011;46987;32.638;-115.438;2023-11-21T10:36:25;9.88;;;3.80;;
61104;SDS011;46987;32.638;-115.438;2023-11-21T10:38:54;13.23;;;3.55;;
61104;SDS011;46987;32.638;-115.438;2023-11-21T10:41:21;12.38;;;4.25;;
61104;SDS011;46987;32.638;-115.438;2023-11-21T10:43:47;16.00;;;4.28;;
61104;SDS011;46987;32.638;-115.438;2023-11-21T10:46:14;13.25;;;3.83;;
61104;SDS011;46987;32.638;-115.438;2023-11-21T10:48:42;9.40;;;4.20;;
61104;SDS011;46987;32.638;-115.438;2023-11-21T10:51:09;10.18;;;4.00;;
61104;SDS011;46987;32.638;-115.438;2023-11-21T10:53:38;11.25;;;4.30;;
61104;SDS011;46987;32.638;-115.438;2023-11-21T10:56:08;12.32;;;4.38;;
61104;SDS011;46987;32.638;-115.438;2023-11-21T10:58:37;13.23;;;4.18;;
61104;SDS011;46987;32.638;-115.438;2023-11-21T11:01:06;10.80;;;3.97;;
61104;SDS011;46987;32.638;-115.438;2023-11-21T11:03:34;9.63;;;3.47;;
61104;SDS011;46987;32.638;-115.438;2023-11-21T11:06:02;10.20;;;4.22;;
61104;SDS011;46987;32.638;-115.438;2023-11-21T11:08:29;15.38;;;3.97;;
61104;SDS011;46987;32.638;-115.438;2023-11-21T11:10:56;13.93;;;3.88;;
61104;SDS011;46987;32.638;-115.438;2023-11-21T11:13:26;15.10;;;3.80;;
61104;SDS011;46987;32.638;-115.438;2023-11-21T11:15:56;10.63;;;3.60;;
61104;SDS011;46987;32.638;-115.438;2023-11-21T11:18:26;12.15;;;3.42;;
61104;SDS011;46987;32.638;-115.438;2023-11-21T11:20:53;9.65;;;3.55;;
61104;SDS011;46987;32.638;-115.438;2023-11-21T11:23:27;7.72;;;3.58;;
61104;SDS011;46987;32.638;-115.438;2023-11-21T11:26:01;8.88;;;3.83;;
61104;SDS011;46987;32.638;-115.438;2023-11-21T11:28:38;11.43;;;3.72;;
61104;SDS011;46987;32.638;-115.438;2023-11-21T11:31:10;9.73;;;3.30;;
61104;SDS011;46987;32.638;-115.438;2023-11-21T11:33:43;11.40;;;3.92;;
61104;SDS011;46987;32.638;-115.438;2023-11-21T11:36:13;17.30;;;4.75;;
61104;SDS011;46987;32.638;-115.438;2023-11-21T11:38:45;15.75;;;4.68;;
61104;SDS011;46987;32.638;-115.438;2023-11-21T11:41:12;11.85;;;5.03;;
61104;SDS011;46987;32.638;-115.438;2023-11-21T11:43:40;9.27;;;3.60;;
61104;SDS011;46987;32.638;-115.438;2023-11-21T11:46:13;8.48;;;3.72;;
61104;SDS011;46987;32.638;-115.438;2023-11-21T11:48:41;12.15;;;3.53;;
61104;SDS011;46987;32.638;-115.438;2023-11-21T11:51:10;11.30;;;3.50;;
61104;SDS011;46987;32.638;-115.438;2023-11-21T11:53:40;11.20;;;4.93;;
61104;SDS011;46987;32.638;-115.438;2023-11-21T11:58:54;13.30;;;3.90;;
61104;SDS011;46987;32.638;-115.438;2023-11-21T12:01:21;11.82;;;3.65;;
61104;SDS011;46987;32.638;-115.438;2023-11-21T12:06:33;12.00;;;3.78;;
61104;SDS011;46987;32.638;-115.438;2023-11-21T12:09:01;7.00;;;2.90;;
61104;SDS011;46987;32.638;-115.438;2023-11-21T12:11:30;11.68;;;3.78;;
61104;SDS011;46987;32.638;-115.438;2023-11-21T12:13:59;8.77;;;3.30;;
61104;SDS011;46987;32.638;-115.438;2023-11-21T12:16:27;11.90;;;3.55;;
61104;SDS011;46987;32.638;-115.438;2023-11-21T12:18:53;9.18;;;3.53;;
61104;SDS011;46987;32.638;-115.438;2023-11-21T12:21:20;8.98;;;3.42;;
61104;SDS011;46987;32.638;-115.438;2023-11-21T12:23:48;10.10;;;3.47;;
61104;SDS011;46987;32.638;-115.438;2023-11-21T12:26:15;14.32;;;4.20;;
61104;SDS011;46987;32.638;-115.438;2023-11-21T12:28:41;7.25;;;3.10;;
61104;SDS011;46987;32.638;-115.438;2023-11-21T12:31:11;10.45;;;4.07;;
61104;SDS011;46987;32.638;-115.438;2023-11-21T12:33:37;7.55;;;3.17;;
61104;SDS011;46987;32.638;-115.438;2023-11-21T12:36:04;10.80;;;3.88;;
61104;SDS011;46987;32.638;-115.438;2023-11-21T12:38:33;11.27;;;3.47;;
61104;SDS011;46987;32.638;-115.438;2023-11-21T12:41:01;10.30;;;3.75;;
61104;SDS011;46987;32.638;-115.438;2023-11-21T12:43:28;11.73;;;3.17;;
61104;SDS011;46987;32.638;-115.438;2023-11-21T12:46:04;10.52;;;3.50;;
61104;SDS011;46987;32.638;-115.438;2023-11-21T12:48:33;9.82;;;3.70;;
61104;SDS011;46987;32.638;-115.438;2023-11-21T12:51:00;14.73;;;3.85;;
61104;SDS011;46987;32.638;-115.438;2023-11-21T12:53:28;10.65;;;3.47;;
61104;SDS011;46987;32.638;-115.438;2023-11-21T12:56:06;6.35;;;2.70;;
61104;SDS011;46987;32.638;-115.438;2023-11-21T12:58:35;8.90;;;3.17;;
61104;SDS011;46987;32.638;-115.438;2023-11-21T13:01:02;9.75;;;2.85;;
61104;SDS011;46987;32.638;-115.438;2023-11-21T13:03:33;12.38;;;3.05;;
61104;SDS011;46987;32.638;-115.438;2023-11-21T13:06:02;9.18;;;3.35;;
61104;SDS011;46987;32.638;-115.438;2023-11-21T13:08:29;7.50;;;2.85;;
61104;SDS011;46987;32.638;-115.438;2023-11-21T13:10:57;7.80;;;2.72;;
61104;SDS011;46987;32.638;-115.438;2023-11-21T13:13:23;11.38;;;2.75;;
61104;SDS011;46987;32.638;-115.438;2023-11-21T13:15:51;9.77;;;2.65;;
61104;SDS011;46987;32.638;-115.438;2023-11-21T13:18:18;9.77;;;2.67;;
61104;SDS011;46987;32.638;-115.438;2023-11-21T13:20:53;5.70;;;2.13;;
61104;SDS011;46987;32.638;-115.438;2023-11-21T13:23:21;11.38;;;2.70;;
61104;SDS011;46987;32.638;-115.438;2023-11-21T13:25:49;7.65;;;2.20;;
61104;SDS011;46987;32.638;-115.438;2023-11-21T13:28:16;5.82;;;2.13;;
61104;SDS011;46987;32.638;-115.438;2023-11-21T13:30:44;8.40;;;2.45;;
61104;SDS011;46987;32.638;-115.438;2023-11-21T13:33:11;7.40;;;2.10;;
61104;SDS011;46987;32.638;-115.438;2023-11-21T13:35:44;8.48;;;2.75;;
61104;SDS011;46987;32.638;-115.438;2023-11-21T13:38:21;8.98;;;2.92;;
61104;SDS011;46987;32.638;-115.438;2023-11-21T13:40:51;7.63;;;2.78;;
61104;SDS011;46987;32.638;-115.438;2023-11-21T13:43:22;10.75;;;2.92;;
61104;SDS011;46987;32.638;-115.438;2023-11-21T13:45:50;8.27;;;2.90;;
61104;SDS011;46987;32.638;-115.438;2023-11-21T13:48:22;9.60;;;3.90;;
61104;SDS011;46987;32.638;-115.438;2023-11-21T13:50:57;11.02;;;3.22;;
61104;SDS011;46987;32.638;-115.438;2023-11-21T13:53:29;12.73;;;3.30;;
61104;SDS011;46987;32.638;-115.438;2023-11-21T13:55:55;9.60;;;2.97;;
61104;SDS011;46987;32.638;-115.438;2023-11-21T13:58:23;7.07;;;2.20;;
61104;SDS011;46987;32.638;-115.438;2023-11-21T14:01:09;10.18;;;2.67;;
61104;SDS011;46987;32.638;-115.438;2023-11-21T14:03:51;5.90;;;2.33;;
61104;SDS011;46987;32.638;-115.438;2023-11-21T14:06:26;11.02;;;2.80;;
61104;SDS011;46987;32.638;-115.438;2023-11-21T14:09:02;7.43;;;2.30;;